createdAt,value
2023-03-16T00:01:58.936Z,2.01
2023-03-16T00:04:39.450Z,1.98
2023-03-16T00:07:23.960Z,1.99
2023-03-16T00:10:07.741Z,2.02
2023-03-16T00:12:48.640Z,2.14
2023-03-16T00:15:19.411Z,2.08
2023-03-16T00:17:48.913Z,2.13
2023-03-16T00:20:18.551Z,2.14
2023-03-16T00:22:46.996Z,1.95
2023-03-16T00:25:15.053Z,2.10
2023-03-16T00:27:51.696Z,2.09
2023-03-16T00:30:20.000Z,2.08
2023-03-16T00:32:47.703Z,2.13
2023-03-16T00:35:18.466Z,2.11
2023-03-16T00:37:47.634Z,2.24
2023-03-16T00:40:17.109Z,2.10
2023-03-16T00:43:11.996Z,2.30
2023-03-16T00:45:45.687Z,2.25
2023-03-16T00:48:13.898Z,2.32
2023-03-16T00:50:43.320Z,2.19
2023-03-16T00:53:12.112Z,2.19
2023-03-16T00:56:09.733Z,2.17
2023-03-16T00:58:39.734Z,2.16
2023-03-16T01:01:19.310Z,2.27
2023-03-16T01:03:50.267Z,2.18
2023-03-16T01:06:20.813Z,2.32
2023-03-16T01:08:53.967Z,2.26
2023-03-16T01:11:23.226Z,2.33
2023-03-16T01:13:54.515Z,2.35
2023-03-16T01:16:24.695Z,2.31
2023-03-16T01:18:53.972Z,2.46
2023-03-16T01:21:22.237Z,2.46
2023-03-16T01:23:55.738Z,2.48
2023-03-16T01:26:34.877Z,2.40
2023-03-16T01:29:29.651Z,2.47
2023-03-16T01:32:16.693Z,2.51
2023-03-16T01:34:50.176Z,2.50
2023-03-16T01:37:29.142Z,2.49
2023-03-16T01:40:23.231Z,2.59
2023-03-16T01:43:12.055Z,2.31
2023-03-16T01:46:19.781Z,2.57
2023-03-16T01:49:14.851Z,2.50
2023-03-16T01:51:52.936Z,2.57
2023-03-16T01:54:32.678Z,2.56
2023-03-16T01:57:12.970Z,2.46
2023-03-16T02:03:22.734Z,2.57
2023-03-16T02:06:16.198Z,2.60
2023-03-16T02:08:55.465Z,2.56
2023-03-16T02:15:31.339Z,2.47
2023-03-16T02:18:00.400Z,2.41
2023-03-16T02:20:42.910Z,2.38
2023-03-16T02:23:20.275Z,2.34
2023-03-16T02:26:06.358Z,2.32
2023-03-16T02:29:53.729Z,2.28
2023-03-16T02:32:32.230Z,2.37
2023-03-16T02:35:07.843Z,2.38
2023-03-16T02:37:35.763Z,2.36
2023-03-16T02:40:38.021Z,2.45
2023-03-16T02:43:28.223Z,2.36
2023-03-16T02:46:22.230Z,2.38
2023-03-16T02:49:34.424Z,2.49
2023-03-16T02:52:04.810Z,2.47
2023-03-16T02:54:34.992Z,2.44
2023-03-16T02:57:05.141Z,2.67
2023-03-16T02:59:43.027Z,2.67
2023-03-16T03:02:11.617Z,2.59
2023-03-16T03:04:39.486Z,2.79
2023-03-16T03:07:09.875Z,2.76
2023-03-16T03:09:55.225Z,2.75
2023-03-16T03:12:24.173Z,2.82
2023-03-16T03:14:52.838Z,2.65
2023-03-16T03:17:22.057Z,2.71
2023-03-16T03:19:49.735Z,2.80
2023-03-16T03:22:18.808Z,2.82
2023-03-16T03:24:47.763Z,2.81
2023-03-16T03:27:15.158Z,2.84
2023-03-16T03:29:44.796Z,2.87
2023-03-16T03:32:13.622Z,2.88
2023-03-16T03:34:45.197Z,2.79
2023-03-16T03:37:16.746Z,2.84
2023-03-16T03:39:48.360Z,2.88
2023-03-16T03:42:25.139Z,2.84
2023-03-16T03:44:54.279Z,2.82
2023-03-16T03:47:22.985Z,2.85
2023-03-16T03:50:02.290Z,2.67
2023-03-16T03:52:35.859Z,2.87
2023-03-16T03:55:04.371Z,2.91
2023-03-16T03:57:31.997Z,2.84
2023-03-16T04:00:01.823Z,2.78
2023-03-16T04:02:50.146Z,2.81
2023-03-16T04:08:26.846Z,2.89
2023-03-16T04:10:58.169Z,2.90
2023-03-16T04:13:26.841Z,2.84
2023-03-16T04:20:56.628Z,2.83
2023-03-16T04:23:26.032Z,2.86
2023-03-16T04:26:00.632Z,2.88
2023-03-16T04:28:29.274Z,2.96
2023-03-16T04:31:07.402Z,2.94
2023-03-16T04:33:43.914Z,2.98
2023-03-16T04:36:12.771Z,2.83
2023-03-16T04:38:47.497Z,2.86
2023-03-16T04:45:51.246Z,2.94
2023-03-16T04:48:25.940Z,2.86
2023-03-16T04:50:58.674Z,2.90
2023-03-16T04:53:34.723Z,2.89
2023-03-16T04:56:19.792Z,2.81
2023-03-16T04:58:57.160Z,2.89
2023-03-16T05:01:29.682Z,2.85
2023-03-16T05:04:29.174Z,2.95
2023-03-16T05:11:57.453Z,2.93
2023-03-16T05:15:00.656Z,2.89
2023-03-16T05:18:45.634Z,3.01
2023-03-16T05:22:26.783Z,3.06
2023-03-16T05:26:31.846Z,3.15
2023-03-16T05:29:56.061Z,3.19
2023-03-16T05:32:31.504Z,3.15
2023-03-16T05:35:13.617Z,3.21
2023-03-16T05:41:05.715Z,3.27
2023-03-16T05:43:50.586Z,3.22
2023-03-16T05:46:29.517Z,3.18
2023-03-16T05:49:05.841Z,3.10
2023-03-16T05:51:35.376Z,3.22
2023-03-16T05:54:05.833Z,3.26
2023-03-16T05:56:53.740Z,3.20
2023-03-16T05:59:22.753Z,3.27
2023-03-16T06:01:54.560Z,3.17
2023-03-16T06:04:25.693Z,3.18
2023-03-16T06:07:52.240Z,3.35
2023-03-16T06:10:21.511Z,3.18
2023-03-16T06:12:49.288Z,3.27
2023-03-16T06:16:26.345Z,3.50
2023-03-16T06:19:14.691Z,3.55
2023-03-16T06:21:52.033Z,3.62
2023-03-16T06:24:32.588Z,3.58
2023-03-16T06:27:02.336Z,3.59
2023-03-16T06:30:20.358Z,3.66
2023-03-16T06:32:52.619Z,3.75
2023-03-16T06:35:29.234Z,3.57
2023-03-16T06:38:29.000Z,3.51
2023-03-16T06:41:07.721Z,3.82
2023-03-16T06:43:36.971Z,3.99
2023-03-16T06:46:06.024Z,4.35
2023-03-16T06:48:35.780Z,4.33
2023-03-16T06:51:04.677Z,4.83
2023-03-16T06:53:32.879Z,5.35
2023-03-16T06:56:01.485Z,5.57
2023-03-16T06:58:32.388Z,5.52
2023-03-16T07:01:03.971Z,5.32
2023-03-16T07:03:31.618Z,5.57
2023-03-16T07:06:07.014Z,5.62
2023-03-16T07:08:40.624Z,6.28
2023-03-16T07:11:39.775Z,6.60
2023-03-16T07:14:07.712Z,6.99
2023-03-16T07:16:40.166Z,7.44
2023-03-16T07:19:21.114Z,8.23
2023-03-16T07:22:00.233Z,8.06
2023-03-16T07:24:36.521Z,7.70
2023-03-16T07:32:50.394Z,7.04
2023-03-16T07:35:27.285Z,6.93
2023-03-16T07:38:24.748Z,6.98
2023-03-16T07:40:59.153Z,7.33
2023-03-16T07:43:27.092Z,6.97
2023-03-16T07:45:56.813Z,6.57
2023-03-16T07:48:26.253Z,6.56
2023-03-16T07:50:58.068Z,6.97
2023-03-16T07:53:25.626Z,8.12
2023-03-16T07:56:06.768Z,8.31
2023-03-16T07:58:37.539Z,8.23
2023-03-16T08:01:05.470Z,7.83
2023-03-16T08:03:34.737Z,6.77
2023-03-16T08:06:03.655Z,6.62
2023-03-16T08:08:32.381Z,5.96
2023-03-16T08:11:02.697Z,6.26
2023-03-16T08:13:56.855Z,5.84
2023-03-16T08:16:36.827Z,5.96
2023-03-16T08:20:09.420Z,5.47
2023-03-16T08:23:07.311Z,6.06
2023-03-16T08:25:45.667Z,6.64
2023-03-16T08:29:07.893Z,6.60
2023-03-16T08:31:38.483Z,7.43
2023-03-16T08:34:24.699Z,7.66
2023-03-16T08:36:54.313Z,7.88
2023-03-16T08:39:23.260Z,7.65
2023-03-16T08:41:51.269Z,7.96
2023-03-16T08:44:42.746Z,7.79
2023-03-16T08:47:11.056Z,8.30
2023-03-16T08:49:42.050Z,7.97
2023-03-16T08:52:23.178Z,7.99
2023-03-16T09:37:44.950Z,10.50
2023-03-16T09:40:24.894Z,10.66
2023-03-16T09:43:19.123Z,11.02
2023-03-16T09:45:58.776Z,10.17
2023-03-16T09:48:29.516Z,10.02
2023-03-16T09:51:00.097Z,10.01
2023-03-16T09:53:33.630Z,8.98
2023-03-16T09:56:05.157Z,8.61
2023-03-16T09:58:33.185Z,9.55
2023-03-16T10:01:01.050Z,9.98
2023-03-16T10:03:47.149Z,9.70
2023-03-16T10:06:16.380Z,9.67
2023-03-16T10:08:53.203Z,9.52
2023-03-16T10:11:45.188Z,9.22
2023-03-16T10:14:59.748Z,9.89
2023-03-16T10:17:36.655Z,9.76
2023-03-16T10:20:17.764Z,9.70
2023-03-16T10:22:48.161Z,10.75
2023-03-16T10:25:50.051Z,10.89
2023-03-16T10:28:22.344Z,11.45
2023-03-16T10:30:57.059Z,10.44
2023-03-16T10:33:28.024Z,9.01
2023-03-16T10:35:58.409Z,9.22
2023-03-16T10:38:38.984Z,9.49
2023-03-16T10:41:21.623Z,8.62
2023-03-16T10:44:07.880Z,8.42
2023-03-16T10:46:48.846Z,8.84
2023-03-16T10:49:42.328Z,9.34
2023-03-16T10:52:24.073Z,9.55
2023-03-16T10:54:58.505Z,8.77
2023-03-16T10:57:35.150Z,9.49
2023-03-16T11:00:23.523Z,9.18
2023-03-16T11:02:54.500Z,9.45
2023-03-16T11:05:35.150Z,9.47
2023-03-16T11:08:10.790Z,10.01
2023-03-16T11:10:54.691Z,10.02
2023-03-16T11:13:26.502Z,10.72
2023-03-16T11:16:02.859Z,10.60
2023-03-16T11:18:39.294Z,10.64
2023-03-16T11:21:12.869Z,11.45
2023-03-16T11:23:48.674Z,11.22
2023-03-16T11:26:28.200Z,10.34
2023-03-16T11:29:16.042Z,10.28
2023-03-16T11:31:58.034Z,10.74
2023-03-16T11:34:54.560Z,10.38
2023-03-16T11:37:52.904Z,10.13
2023-03-16T11:40:41.432Z,10.21
2023-03-16T11:43:54.033Z,10.78
2023-03-16T11:46:42.367Z,11.12
2023-03-16T11:49:48.343Z,10.56
2023-03-16T11:57:49.593Z,10.22
2023-03-16T12:00:48.012Z,10.06
2023-03-16T12:03:54.918Z,10.01
2023-03-16T12:06:25.997Z,10.28
2023-03-16T12:09:10.978Z,11.41
2023-03-16T12:12:09.998Z,10.67
2023-03-16T12:14:44.645Z,10.55
2023-03-16T12:17:41.060Z,9.72
2023-03-16T12:20:37.377Z,8.97
2023-03-16T12:23:25.716Z,9.22
2023-03-16T12:26:03.726Z,9.44
2023-03-16T12:28:33.657Z,8.68
2023-03-16T12:31:20.167Z,9.76
2023-03-16T12:34:34.837Z,10.01
2023-03-16T12:37:18.544Z,10.13
2023-03-16T12:40:10.650Z,10.26
2023-03-16T12:43:12.045Z,9.26
2023-03-16T12:46:25.373Z,8.95
2023-03-16T12:49:02.824Z,10.08
2023-03-16T12:51:39.016Z,9.56
2023-03-16T12:54:19.347Z,9.02
2023-03-16T12:56:50.862Z,9.44
2023-03-16T12:59:24.094Z,9.85
2023-03-16T13:01:58.771Z,10.01
2023-03-16T13:04:41.714Z,9.69
2023-03-16T13:07:17.568Z,9.23
2023-03-16T13:09:49.650Z,9.26
2023-03-16T13:12:38.426Z,9.52
2023-03-16T13:15:22.435Z,10.53
2023-03-16T13:18:39.321Z,10.36
2023-03-16T13:21:23.131Z,9.53
2023-03-16T13:23:59.008Z,9.72
2023-03-16T13:26:41.207Z,10.45
2023-03-16T13:29:30.311Z,10.35
2023-03-16T13:32:13.905Z,10.25
2023-03-16T13:34:53.914Z,9.93
2023-03-16T13:37:24.649Z,9.52
2023-03-16T13:40:00.714Z,9.40
2023-03-16T13:42:32.898Z,9.12
2023-03-16T13:45:14.568Z,9.77
2023-03-16T13:47:48.424Z,10.23
2023-03-16T13:50:19.603Z,10.39
2023-03-16T13:53:04.045Z,10.24
2023-03-16T13:55:37.389Z,10.03
2023-03-16T13:58:05.837Z,9.67
2023-03-16T14:00:37.930Z,9.68
2023-03-16T14:03:16.422Z,9.44
2023-03-16T14:05:51.903Z,9.37
2023-03-16T14:08:20.713Z,9.43
2023-03-16T14:10:54.700Z,8.71
2023-03-16T14:13:29.276Z,8.53
2023-03-16T14:16:18.495Z,9.08
2023-03-16T14:19:01.185Z,9.36
2023-03-16T14:21:35.939Z,9.88
2023-03-16T14:24:17.829Z,10.47
2023-03-16T14:26:51.178Z,11.08
2023-03-16T14:29:27.689Z,11.40
2023-03-16T14:31:57.237Z,11.34
2023-03-16T14:34:39.934Z,11.44
2023-03-16T14:37:13.821Z,10.75
2023-03-16T14:39:43.700Z,10.87
2023-03-16T14:42:31.720Z,11.11
2023-03-16T14:45:08.805Z,11.25
2023-03-16T14:47:44.184Z,10.76
2023-03-16T14:50:30.065Z,11.15
2023-03-16T14:52:58.608Z,10.50
2023-03-16T14:55:27.245Z,10.21
2023-03-16T14:57:56.320Z,9.93
2023-03-16T15:00:25.676Z,9.79
2023-03-16T15:03:08.430Z,10.23
2023-03-16T15:05:39.172Z,9.89
2023-03-16T15:08:28.783Z,10.13
2023-03-16T15:10:59.868Z,10.42
2023-03-16T15:13:47.115Z,10.62
2023-03-16T15:16:16.073Z,10.86
2023-03-16T15:18:58.405Z,11.04
2023-03-16T15:21:32.709Z,11.07
2023-03-16T15:24:02.993Z,11.21
2023-03-16T15:26:33.648Z,11.00
2023-03-16T15:29:07.011Z,10.33
2023-03-16T15:32:01.009Z,10.31
2023-03-16T15:34:29.273Z,10.50
2023-03-16T15:37:27.262Z,10.19
2023-03-16T15:40:45.814Z,10.35
2023-03-16T15:43:21.000Z,10.56
2023-03-16T15:46:02.363Z,10.50
2023-03-16T15:48:36.376Z,10.46
2023-03-16T15:51:19.063Z,10.40
2023-03-16T15:54:09.736Z,10.39
2023-03-16T15:56:53.797Z,10.09
2023-03-16T15:59:24.941Z,9.85
2023-03-16T16:02:33.361Z,10.07
2023-03-16T16:05:13.398Z,9.91
2023-03-16T16:07:42.368Z,9.43
2023-03-16T16:10:15.022Z,9.64
2023-03-16T16:12:54.790Z,9.52
2023-03-16T16:15:32.768Z,9.17
2023-03-16T16:18:24.104Z,9.07
2023-03-16T16:20:54.164Z,9.10
2023-03-16T16:23:25.984Z,8.72
2023-03-16T16:26:03.024Z,8.58
2023-03-16T16:28:35.668Z,8.34
2023-03-16T16:31:12.796Z,8.36
2023-03-16T16:33:50.609Z,8.24
2023-03-16T16:36:21.523Z,8.06
2023-03-16T16:38:58.273Z,7.89
2023-03-16T16:41:32.986Z,7.97
2023-03-16T16:44:09.121Z,7.71
2023-03-16T16:46:45.578Z,7.65
2023-03-16T16:49:24.690Z,7.38
2023-03-16T16:51:55.660Z,7.25
2023-03-16T16:54:25.828Z,7.41
2023-03-16T16:56:57.425Z,7.35
2023-03-16T16:59:37.968Z,7.21
2023-03-16T17:02:46.307Z,7.09
2023-03-16T17:05:26.505Z,7.15
2023-03-16T17:07:55.489Z,6.98
2023-03-16T17:10:27.269Z,6.87
2023-03-16T17:13:26.823Z,7.01
2023-03-16T17:15:56.598Z,6.96
2023-03-16T17:18:46.625Z,6.63
2023-03-16T17:21:20.015Z,6.53
2023-03-16T17:23:52.992Z,6.48
2023-03-16T17:26:42.867Z,6.27
2023-03-16T17:29:27.285Z,6.35
2023-03-16T17:32:14.692Z,6.58
2023-03-16T17:34:45.709Z,6.45
2023-03-16T17:37:20.910Z,6.22
2023-03-16T17:39:52.126Z,6.10
2023-03-16T17:42:23.718Z,6.02
2023-03-16T17:44:56.575Z,5.88
2023-03-16T17:47:33.359Z,6.01
2023-03-16T17:50:02.723Z,5.82
2023-03-16T17:53:06.957Z,5.85
2023-03-16T17:55:36.845Z,5.63
2023-03-16T17:58:23.299Z,5.59
2023-03-16T18:00:54.357Z,5.58
2023-03-16T18:03:48.180Z,5.77
2023-03-16T18:06:47.041Z,5.87
2023-03-16T18:09:21.430Z,5.56
2023-03-16T18:11:52.305Z,5.65
2023-03-16T18:14:35.264Z,5.82
2023-03-16T18:17:31.089Z,5.76
2023-03-16T18:20:00.549Z,5.46
2023-03-16T18:22:53.501Z,5.38
2023-03-16T18:25:39.311Z,5.19
2023-03-16T18:28:10.086Z,5.02
2023-03-16T18:30:40.072Z,5.02
2023-03-16T18:33:40.557Z,5.00
2023-03-16T18:36:19.595Z,4.97
2023-03-16T18:39:19.068Z,4.86
2023-03-16T18:42:18.272Z,4.83
2023-03-16T18:44:51.258Z,4.59
2023-03-16T18:47:24.262Z,4.83
2023-03-16T18:50:46.046Z,5.15
2023-03-16T18:53:27.764Z,4.88
2023-03-16T19:00:17.899Z,4.59
2023-03-16T19:02:55.635Z,4.49
2023-03-16T19:05:36.859Z,4.55
2023-03-16T19:08:15.133Z,4.41
2023-03-16T19:10:53.445Z,4.39
2023-03-16T19:13:22.639Z,4.31
2023-03-16T19:15:56.110Z,4.30
2023-03-16T19:18:29.689Z,4.26
2023-03-16T19:20:59.127Z,4.13
2023-03-16T19:23:31.046Z,4.06
2023-03-16T19:26:12.164Z,3.95
2023-03-16T19:28:42.993Z,3.82
2023-03-16T19:31:33.797Z,3.87
2023-03-16T19:34:03.394Z,3.79
2023-03-16T19:36:34.319Z,3.75
2023-03-16T19:39:04.512Z,3.86
2023-03-16T19:41:45.036Z,3.87
2023-03-16T19:44:24.218Z,3.84
2023-03-16T19:46:58.574Z,3.81
2023-03-16T19:49:28.373Z,3.69
2023-03-16T19:51:59.027Z,3.69
2023-03-16T19:54:36.130Z,3.62
2023-03-16T19:57:13.921Z,3.58
2023-03-16T19:59:44.652Z,3.47
2023-03-16T20:02:43.449Z,3.64
2023-03-16T20:05:28.242Z,3.50
2023-03-16T20:08:02.301Z,3.56
2023-03-16T20:10:39.272Z,3.54
2023-03-16T20:13:20.720Z,3.50
2023-03-16T20:15:52.910Z,3.49
2023-03-16T20:18:31.347Z,3.51
2023-03-16T20:21:01.139Z,3.37
2023-03-16T20:23:30.288Z,3.50
2023-03-16T20:26:01.969Z,3.51
2023-03-16T20:28:36.380Z,3.42
2023-03-16T20:31:08.762Z,3.31
2023-03-16T20:33:40.031Z,3.44
2023-03-16T20:36:13.501Z,3.44
2023-03-16T20:38:43.796Z,3.02
2023-03-16T20:41:30.209Z,3.37
2023-03-16T20:44:25.790Z,3.29
2023-03-16T20:46:55.555Z,3.37
2023-03-16T20:49:44.111Z,3.29
2023-03-16T20:52:52.813Z,3.30
2023-03-16T20:55:29.581Z,3.31
2023-03-16T20:58:01.708Z,3.18
2023-03-16T21:00:44.330Z,3.24
2023-03-16T21:03:22.895Z,3.31
2023-03-16T21:05:53.240Z,3.33
2023-03-16T21:08:20.828Z,3.32
2023-03-16T21:10:52.697Z,3.13
2023-03-16T21:13:30.250Z,3.26
2023-03-16T21:16:03.739Z,3.28
2023-03-16T21:18:31.501Z,3.12
2023-03-16T21:20:59.877Z,3.07
2023-03-16T21:23:31.513Z,3.05
2023-03-16T21:26:01.695Z,2.99
2023-03-16T21:28:34.778Z,2.93
2023-03-16T21:31:06.397Z,3.03
2023-03-16T21:33:45.858Z,2.98
2023-03-16T21:36:17.845Z,2.84
2023-03-16T21:38:47.418Z,2.82
2023-03-16T21:41:15.582Z,2.74
2023-03-16T21:43:44.717Z,2.78
2023-03-16T21:46:23.324Z,2.78
2023-03-16T21:48:55.101Z,2.70
2023-03-16T21:51:29.184Z,2.65
2023-03-16T21:53:56.756Z,2.50
2023-03-16T21:56:26.265Z,2.49
2023-03-16T21:58:55.014Z,2.51
2023-03-16T22:01:29.707Z,2.52
2023-03-16T22:04:02.987Z,2.45
2023-03-16T22:06:34.102Z,2.49
2023-03-16T22:09:04.305Z,2.44
2023-03-16T22:11:32.847Z,2.49
2023-03-16T22:14:01.199Z,2.46
2023-03-16T22:16:33.619Z,2.50
2023-03-16T22:19:01.402Z,2.40
2023-03-16T22:21:40.684Z,2.33
2023-03-16T22:24:25.085Z,2.30
2023-03-16T22:26:54.489Z,2.26
2023-03-16T22:29:33.647Z,2.09
2023-03-16T22:32:18.865Z,2.20
2023-03-16T22:34:56.261Z,2.18
2023-03-16T22:37:29.147Z,2.07
2023-03-16T22:40:02.490Z,2.15
2023-03-16T22:42:39.981Z,2.12
2023-03-16T22:45:19.177Z,2.15
2023-03-16T22:47:47.961Z,2.07
2023-03-16T22:50:22.077Z,2.02
2023-03-16T22:52:55.145Z,1.94
2023-03-16T22:55:28.636Z,2.02
2023-03-16T22:58:31.117Z,1.90
2023-03-16T23:01:32.004Z,1.90
2023-03-16T23:04:47.800Z,1.87
2023-03-16T23:07:23.223Z,1.85
2023-03-16T23:10:03.497Z,1.82
2023-03-16T23:12:32.461Z,1.78
2023-03-16T23:15:19.321Z,1.82
2023-03-16T23:17:47.346Z,1.61
2023-03-16T23:20:28.687Z,1.77
2023-03-16T23:23:02.822Z,1.79
2023-03-16T23:25:33.579Z,1.66
2023-03-16T23:28:03.004Z,1.71
2023-03-16T23:30:47.990Z,1.79
2023-03-16T23:33:22.310Z,1.60
2023-03-16T23:35:53.475Z,1.64
2023-03-16T23:38:21.581Z,1.61
2023-03-16T23:40:51.440Z,1.67
2023-03-16T23:43:24.892Z,1.47
2023-03-16T23:45:57.684Z,1.65
2023-03-16T23:48:27.058Z,1.57
2023-03-16T23:51:43.786Z,1.62
2023-03-16T23:54:24.793Z,1.50
2023-03-16T23:56:58.050Z,1.57
2023-03-16T23:59:29.236Z,1.53
